Latest Weather Observations for Hervey Bay

IDQ60801

Issued at 6:52 am EST Wednesday 20 November 2019 (issued every 10 minutes, with the page automatically refreshed every 10 minutes)

About weather observations | Map of weather stations | Latest weather observations for QLD | Other Formats
Station Details ID: 040405 Name: HERVEY BAY AIRPORT Lat: -25.32 Lon: 152.88 Height: 12.98 m
Data from the previous 72 hours. | See also: Recent months at Hervey Bay
Date/Time
EST
Temp
°C
App
Temp
°C
Dew
Point
°C
Rel
Hum
%
Delta-T
°C
Wind Press
QNH
hPa
Press
MSL
hPa
Rain since
9am
mm
Dir  Spd
km/h
Gust
km/h
Spd
kts
Gust
kts
20/06:30am 25.4 26.6 20.0 72 3.5 NNW 13 19 7 10 1014.4 1014.3 0.0
20/06:00am 24.9 26.9 19.9 74 3.2 N 9 15 5 8 1014.2 1014.1 0.0
20/05:30am 24.3 26.3 20.0 77 2.8 N 9 11 5 6 1014.1 1014.0 0.0
20/05:00am 23.6 26.2 20.1 81 2.3 N 6 9 3 5 1013.7 1013.6 0.0
20/04:30am 23.7 26.0 19.8 79 2.5 NNE 7 11 4 6 1013.4 1013.3 0.0
20/04:00am 23.9 25.7 19.6 77 2.8 N 9 13 5 7 1013.4 1013.3 0.0
20/03:30am 24.2 26.1 19.7 76 2.9 N 9 13 5 7 1013.2 1013.1 0.0
20/03:00am 24.3 25.5 19.8 76 2.9 N 13 20 7 11 1012.9 1012.8 0.0
20/02:30am 24.1 25.1 19.4 75 3.0 N 13 20 7 11 1012.7 1012.6 0.0
20/02:00am 24.1 25.1 19.4 75 3.0 N 13 19 7 10 1012.7 1012.6 0.0
20/01:30am 24.2 25.3 19.7 76 2.9 N 13 17 7 9 1013.0 1012.9 0.0
20/01:00am 24.4 25.5 19.7 75 3.0 N 13 20 7 11 1013.3 1013.2 0.0
20/12:30am 24.3 25.5 20.0 77 2.8 N 13 19 7 10 1013.5 1013.4 0.0
20/12:00am 24.0 25.1 19.7 77 2.8 N 13 17 7 9 1013.8 1013.7 0.0
 
Date/Time
EST
Temp
°C
App
Temp
°C
Dew
Point
°C
Rel
Hum
%
Delta-T
°C
Wind Press
QNH
hPa
Press
MSL
hPa
Rain since
9am
mm
Dir  Spd
km/h
Gust
km/h
Spd
kts
Gust
kts
19/11:30pm 24.2 25.4 19.9 77 2.8 NNE 13 20 7 11 1014.0 1013.9 0.0
19/11:00pm 24.5 25.4 20.0 76 2.9 NNE 15 20 8 11 1014.2 1014.1 0.0
19/10:30pm 24.5 25.0 20.0 76 2.9 NNE 17 20 9 11 1014.3 1014.2 0.0
19/10:00pm 24.3 25.0 19.6 75 3.0 NNE 15 22 8 12 1014.3 1014.2 0.0
19/09:30pm 24.3 24.9 19.4 74 3.1 NNE 15 20 8 11 1014.4 1014.3 0.0
19/09:00pm 24.4 25.5 19.7 75 3.0 NNE 13 20 7 11 1014.2 1014.1 0.0
19/08:30pm 24.2 24.4 19.3 74 3.1 NE 17 20 9 11 1014.0 1013.9 0.0
19/08:00pm 24.4 24.1 19.2 73 3.3 NE 19 24 10 13 1013.6 1013.5 0.0
19/07:30pm 24.6 24.2 19.0 71 3.6 NE 19 24 10 13 1013.4 1013.3 0.0
19/07:00pm 25.0 25.4 18.9 69 3.9 NE 15 20 8 11 1013.1 1013.0 0.0
19/06:30pm 25.7 24.3 18.9 66 4.3 NNE 24 33 13 18 1012.8 1012.7 0.0
19/06:00pm 25.9 25.3 19.8 69 4.0 NNE 22 30 12 16 1012.6 1012.5 0.0
19/05:30pm 26.3 25.3 19.7 67 4.3 NNE 24 33 13 18 1012.2 1012.1 0.0
19/05:00pm 26.9 26.0 19.8 65 4.6 NE 24 30 13 16 1012.0 1011.9 0.0
19/04:30pm 27.7 26.8 19.0 59 5.6 NNE 22 30 12 16 1011.8 1011.7 0.0
19/04:00pm 27.7 26.8 18.1 56 6.1 NNE 20 28 11 15 1011.8 1011.7 0.0
19/03:30pm 28.4 27.4 17.9 53 6.7 NNE 20 28 11 15 1011.8 1011.7 0.0
19/03:00pm 29.0 27.9 17.2 49 7.4 NNE 19 24 10 13 1012.0 1011.9 0.0
19/02:30pm 29.3 28.5 17.2 48 7.6 NE 17 24 9 13 1012.2 1012.1 0.0
19/02:00pm 29.5 28.5 16.7 46 8.0 ENE 17 24 9 13 1012.5 1012.4 0.0
19/01:30pm 29.1 28.3 17.0 48 7.6 ENE 17 22 9 12 1012.8 1012.7 0.0
19/01:00pm 29.2 28.5 16.4 46 8.0 ENE 15 22 8 12 1013.2 1013.1 0.0
19/12:30pm 29.5 28.7 17.0 47 7.9 ENE 17 24 9 13 1013.6 1013.5 0.0
19/12:00pm 29.1 27.7 16.6 46 7.8 E 19 26 10 14 1014.2 1014.1 0.0
19/11:30am 29.4 28.1 14.8 41 8.9 ENE 15 20 8 11 1014.6 1014.5 0.0
19/11:00am 29.7 29.0 16.5 45 8.2 E 15 22 8 12 1015.0 1014.9 0.0
19/10:30am 28.6 28.6 17.2 50 7.2 E 13 19 7 10 1015.4 1015.3 0.0
19/10:00am 28.2 28.2 17.1 51 7.0 E 13 20 7 11 1015.8 1015.7 0.0
19/09:30am 27.3 27.3 17.2 54 6.3 E 13 17 7 9 1016.1 1016.0 0.0
19/09:00am 26.4 26.4 17.2 57 5.7 E 13 17 7 9 1016.3 1016.2 0.2
19/08:30am 26.0 26.6 17.6 60 5.3 E 11 20 6 11 1016.4 1016.3 0.2
19/08:00am 25.1 25.7 18.5 67 4.2 S 13 20 7 11 1016.4 1016.3 0.2
19/07:30am 23.3 24.0 18.0 72 3.3 S 11 15 6 8 1016.4 1016.3 0.2
19/07:00am 21.9 22.6 17.9 78 2.5 SW 11 13 6 7 1016.4 1016.3 0.2
19/06:30am 21.3 21.9 17.7 80 2.2 SSW 11 17 6 9 1016.2 1016.1 0.2
19/06:00am 19.5 19.4 16.9 85 1.6 SSW 13 17 7 9 1016.1 1016.0 0.2
19/05:30am 18.3 18.1 16.6 90 1.0 SSW 13 17 7 9 1015.8 1015.7 0.2
19/05:00am 17.9 18.0 16.4 91 0.9 SW 11 15 6 8 1015.5 1015.4 0.2
19/04:30am 17.8 17.8 16.3 91 0.9 SW 11 13 6 7 1015.0 1014.9 0.2
19/04:00am 17.9 18.2 16.1 89 1.1 SW 9 13 5 7 1014.9 1014.8 0.2
19/03:30am 18.3 18.8 16.5 89 1.1 SW 9 13 5 7 1014.8 1014.7 0.2
19/03:00am 18.6 19.5 16.6 88 1.2 SW 7 11 4 6 1014.8 1014.7 0.2
19/02:30am 18.9 20.0 16.5 86 1.4 WSW 6 7 3 4 1014.9 1014.8 0.2
19/02:00am 19.4 20.6 16.8 85 1.6 W 6 9 3 5 1015.0 1014.9 0.2
19/01:30am 20.5 21.6 17.1 81 2.1 SSW 7 11 4 6 1015.0 1014.9 0.2
19/01:00am 21.6 22.2 17.8 79 2.4 ESE 11 17 6 9 1015.2 1015.1 0.2
19/12:30am 22.0 22.3 18.0 78 2.5 ESE 13 19 7 10 1015.5 1015.4 0.2
19/12:00am 22.1 21.6 17.9 77 2.6 ESE 17 24 9 13 1015.7 1015.6 0.2
 
Date/Time
EST
Temp
°C
App
Temp
°C
Dew
Point
°C
Rel
Hum
%
Delta-T
°C
Wind Press
QNH
hPa
Press
MSL
hPa
Rain since
9am
mm
Dir  Spd
km/h
Gust
km/h
Spd
kts
Gust
kts
18/11:30pm 22.2 21.8 18.0 77 2.6 ESE 17 26 9 14 1016.0 1015.9 0.2
18/11:00pm 22.2 21.7 17.8 76 2.7 ESE 17 26 9 14 1016.3 1016.2 0.2
18/10:30pm 22.3 21.1 17.4 74 3.0 ESE 20 28 11 15 1016.5 1016.4 0.2
18/10:00pm 22.3 21.2 17.4 74 3.0 ESE 19 28 10 15 1016.7 1016.6 0.2
18/09:30pm 22.2 22.0 17.6 75 2.8 SE 15 20 8 11 1016.8 1016.7 0.2
18/09:00pm 21.9 22.0 17.5 76 2.7 SE 13 17 7 9 1016.9 1016.8 0.2
18/08:30pm 22.0 22.0 17.2 74 2.9 SE 13 20 7 11 1017.0 1016.9 0.2
18/08:00pm 22.1 22.0 17.0 73 3.1 SE 13 20 7 11 1016.9 1016.8 0.2
18/07:30pm 22.4 22.4 17.1 72 3.3 SE 13 20 7 11 1016.8 1016.7 0.2
18/07:00pm 22.6 21.7 16.9 70 3.5 SE 17 24 9 13 1016.6 1016.5 0.2
18/06:30pm 23.0 21.7 16.8 68 3.8 SE 19 28 10 15 1016.4 1016.3 0.2
18/06:00pm 23.4 23.3 16.9 67 4.0 SE 13 22 7 12 1016.1 1016.0 0.2
18/05:30pm 23.7 22.7 16.7 65 4.3 SSE 17 30 9 16 1015.8 1015.7 0.2
18/05:00pm 24.2 23.2 16.7 63 4.6 SE 17 30 9 16 1015.4 1015.3 0.2
18/04:30pm 24.8 22.9 16.8 61 4.9 SE 22 32 12 17 1015.0 1014.9 0.2
18/04:00pm 25.0 23.1 16.7 60 5.1 SE 22 37 12 20 1014.8 1014.7 0.2
18/03:30pm 25.4 23.0 16.5 58 5.5 SE 24 35 13 19 1014.7 1014.6 0.2
18/03:00pm 26.1 24.5 16.6 55 5.9 SSE 20 35 11 19 1014.8 1014.7 0.2
18/02:30pm 27.1 25.6 17.8 56 5.9 SE 22 39 12 21 1014.9 1014.8 0.2
18/02:00pm 27.0 25.5 17.8 57 5.8 SE 22 33 12 18 1014.9 1014.8 0.2
18/01:30pm 26.3 24.3 18.2 61 5.1 SSE 26 43 14 23 1015.1 1015.0 0.2
18/01:00pm 25.9 23.8 18.1 62 4.9 SSE 26 43 14 23 1015.4 1015.3 0.2
18/12:30pm 26.0 24.1 17.6 60 5.3 SSE 24 37 13 20 1015.7 1015.6 0.2
18/12:18pm 25.5 22.9 17.7 62 4.9 SSE 28 46 15 25 1015.8 1015.7 0.2
18/12:00pm 25.4 22.8 17.8 62 4.8 SSE 28 43 15 23 1015.9 1015.8 0.2
18/11:30am 26.1 24.4 18.0 61 5.1 SE 24 39 13 21 1016.2 1016.1 0.2
18/11:00am 26.1 24.2 17.7 60 5.3 SSE 24 33 13 18 1016.2 1016.1 0.2
18/10:30am 25.7 24.1 17.4 60 5.2 SE 22 41 12 22 1016.6 1016.5 0.2
18/10:00am 25.6 22.9 17.5 61 5.1 SE 28 43 15 23 1016.7 1016.6 0.2
18/09:30am 26.0 23.7 17.6 60 5.3 SE 26 39 14 21 1016.7 1016.6 0.2
18/09:00am 25.5 22.7 17.2 60 5.2 SSE 28 43 15 23 1016.7 1016.6 2.0
18/08:30am 25.5 23.4 17.2 60 5.2 SSE 24 41 13 22 1016.6 1016.5 2.0
18/08:00am 24.9 22.8 17.1 62 4.8 SSE 24 43 13 23 1016.6 1016.5 2.0
18/07:30am 24.2 21.7 17.0 64 4.4 SSE 26 44 14 24 1016.5 1016.4 2.0
18/07:00am 24.0 22.5 16.8 64 4.4 SSE 20 30 11 16 1016.3 1016.2 2.0
18/06:30am 23.4 21.4 16.4 64 4.3 SSE 22 37 12 20 1015.8 1015.7 2.0
18/06:00am 23.0 23.0 19.0 78 2.5 SSE 17 28 9 15 1015.6 1015.5 2.0
18/05:30am 22.5 23.3 19.1 81 2.2 S 13 24 7 13 1015.1 1015.0 2.0
18/05:00am 22.3 23.2 19.3 83 1.9 S 13 20 7 11 1014.6 1014.5 2.0
18/04:30am 22.2 22.8 19.4 84 1.8 S 15 24 8 13 1014.3 1014.2 2.0
18/04:14am 22.6 22.5 19.6 83 1.9 S 19 28 10 15 1014.0 1013.9 2.0
18/04:00am 22.8 23.7 20.0 84 1.8 SSW 15 20 8 11 1014.1 1014.0 2.0
18/03:41am 22.9 24.9 20.8 88 1.4 SSW 11 17 6 9 1013.8 1013.7 2.0
18/03:30am 23.1 25.6 21.0 88 1.4 SSW 9 11 5 6 1013.7 1013.6 2.0
18/03:00am 23.4 26.1 20.7 85 1.8 SSW 7 9 4 5 1013.8 1013.7 2.0
18/02:54am 23.8 26.6 20.9 84 1.9 S 7 11 4 6 1013.7 1013.6 2.0
18/02:32am 24.2 27.3 21.1 83 2.0 WSW 6 7 3 4 1013.7 1013.6 2.0
18/02:30am 24.0 27.0 20.9 83 2.0 W 6 11 3 6 1013.7 1013.6 2.0
18/02:29am 24.2 27.3 21.1 83 2.0 W 6 11 3 6 1013.7 1013.6 2.0
18/02:01am 24.3 26.5 21.2 83 2.0 N 11 19 6 10 1013.3 1013.2 2.0
18/02:00am 24.2 26.4 21.1 83 2.0 N 11 19 6 10 1013.3 1013.2 2.0
18/01:30am 24.1 25.4 20.8 82 2.2 N 15 24 8 13 1013.1 1013.0 2.0
18/01:00am 24.2 25.1 20.9 82 2.2 N 17 26 9 14 1013.2 1013.1 2.0
18/12:30am 24.2 24.7 20.9 82 2.2 N 19 28 10 15 1013.2 1013.1 2.0
18/12:00am 24.3 24.7 21.0 82 2.2 N 20 32 11 17 1012.9 1012.8 2.0
 
Date/Time
EST
Temp
°C
App
Temp
°C
Dew
Point
°C
Rel
Hum
%
Delta-T
°C
Wind Press
QNH
hPa
Press
MSL
hPa
Rain since
9am
mm
Dir  Spd
km/h
Gust
km/h
Spd
kts
Gust
kts
17/11:30pm 24.4 25.3 20.9 81 2.3 N 17 30 9 16 1013.3 1013.2 2.0
17/11:00pm 24.5 25.1 21.0 81 2.3 N 19 32 10 17 1013.5 1013.4 2.0
17/10:30pm 24.5 25.0 20.8 80 2.4 N 19 28 10 15 1013.8 1013.7 2.0
17/10:00pm 24.5 24.5 21.0 81 2.3 N 22 33 12 18 1013.6 1013.5 2.0
17/09:30pm 24.7 24.5 21.2 81 2.3 N 24 33 13 18 1013.0 1012.9 2.0
17/09:00pm 24.2 23.1 21.1 83 2.0 NNE 28 46 15 25 1012.6 1012.5 2.0
17/08:56pm 24.5 23.6 21.4 83 2.0 NNE 28 46 15 25 1012.0 1011.9 2.0
17/08:30pm 24.3 23.8 21.4 84 1.9 NNE 26 33 14 18 1012.2 1012.1 2.0
17/08:17pm 24.4 24.0 21.7 85 1.8 NNE 26 39 14 21 1012.2 1012.1 2.0
17/08:00pm 24.7 25.9 21.4 82 2.2 N 17 28 9 15 1013.2 1013.1 2.0
17/07:59pm 24.7 25.9 21.4 82 2.2 N 17 28 9 15 1013.3 1013.2 1.8
17/07:52pm 25.4 26.3 20.9 76 3.0 NNW 17 30 9 16 1014.5 1014.4 0.0
17/07:30pm 25.6 25.4 20.6 74 3.3 NNE 22 32 12 17 1012.5 1012.4 0.0
17/07:00pm 25.6 25.8 20.6 74 3.3 NNE 20 32 11 17 1012.6 1012.5 0.0
17/06:30pm 25.6 26.9 20.2 72 3.5 ENE 13 22 7 12 1012.4 1012.3 0.0
17/06:16pm 25.4 25.6 20.2 73 3.4 N 19 44 10 24 1012.1 1012.0 0.0
17/06:00pm 25.3 23.5 20.3 74 3.3 N 30 43 16 23 1010.1 1010.0 0.0
17/05:30pm 25.7 24.0 20.5 73 3.4 N 30 46 16 25 1009.8 1009.7 0.0
17/05:16pm 25.8 24.5 20.6 73 3.4 N 28 46 15 25 1009.7 1009.6 0.0
17/05:00pm 25.8 24.5 20.6 73 3.4 N 28 39 15 21 1009.4 1009.3 0.0
17/04:30pm 25.6 24.2 20.4 73 3.4 N 28 54 15 29 1009.8 1009.7 0.0
17/04:00pm 25.8 23.4 20.4 72 3.5 N 33 48 18 26 1008.9 1008.8 0.0
17/03:31pm 27.2 25.0 20.3 66 4.5 N 32 50 17 27 1009.0 1008.9 0.0
17/03:30pm 27.4 25.3 20.5 66 4.5 N 32 46 17 25 1009.0 1008.9 0.0
17/03:19pm 26.8 24.4 20.4 68 4.2 N 33 52 18 28 1008.9 1008.8 0.0
17/03:00pm 27.3 24.9 20.4 66 4.5 N 33 50 18 27 1009.0 1008.9 0.0
17/02:30pm 27.4 25.1 20.2 65 4.7 N 32 50 17 27 1009.5 1009.4 0.0
17/02:00pm 28.4 26.2 20.7 63 5.1 N 33 54 18 29 1010.2 1010.1 0.0
17/01:47pm 27.0 25.0 19.9 65 4.6 N 30 48 16 26 1010.5 1010.4 0.0
17/01:30pm 27.9 25.7 20.7 65 4.8 N 33 43 18 23 1010.8 1010.7 0.0
17/01:17pm 27.3 24.8 20.1 64 4.7 N 33 48 18 26 1011.0 1010.9 0.0
17/01:00pm 27.4 25.5 20.2 65 4.7 N 30 44 16 24 1011.5 1011.4 0.0
17/12:39pm 27.4 24.8 20.7 67 4.4 N 35 48 19 26 1011.7 1011.6 0.0
17/12:30pm 28.3 26.3 20.8 63 5.0 N 32 46 17 25 1011.9 1011.8 0.0
17/12:00pm 27.5 25.4 20.6 66 4.5 N 32 44 17 24 1012.5 1012.4 0.0
17/11:30am 26.9 24.7 20.3 67 4.3 N 32 43 17 23 1013.0 1012.9 0.0
17/11:00am 27.3 25.2 20.6 67 4.4 N 32 44 17 24 1013.5 1013.4 0.0
17/10:30am 28.0 27.2 20.8 65 4.8 N 26 37 14 20 1014.1 1014.0 0.0
17/10:00am 27.3 26.0 20.6 67 4.4 N 28 39 15 21 1014.3 1014.2 0.0
17/09:30am 27.6 26.7 20.7 66 4.6 N 26 39 14 21 1014.4 1014.3 0.0
17/09:00am 27.1 25.7 20.4 66 4.4 NNW 28 37 15 20 1014.7 1014.6 2.0
17/08:30am 26.5 25.0 20.3 68 4.1 NNW 28 35 15 19 1014.9 1014.8 2.0
17/08:00am 25.8 25.2 20.6 73 3.4 NNW 24 32 13 17 1014.8 1014.7 2.0
17/07:30am 25.6 25.0 20.4 73 3.4 NNW 24 32 13 17 1014.7 1014.6 2.0
17/07:00am 25.2 25.2 20.2 74 3.3 N 20 35 11 19 1014.3 1014.2 2.0

Other formats

Comma delimited format used in spreadsheet applications
http://www.bom.gov.au/fwo/IDQ60801/IDQ60801.95565.axf

JavaScript Object Notation format (JSON) in row-major order
http://www.bom.gov.au/fwo/IDQ60801/IDQ60801.95565.json

Data quality

Most of these data are generated automatically and are frequently updated. Quality checks on data are not normally performed. It is possible for incorrect values to appear. Refer to information at About Latest Weather Observations and please check the disclaimer before using these data.